Terminal Aerodrome Forecast
Issued by NWS

Home | Current Version | Previous Version | Text Only | Print | Product List | Glossary On
Versions: 1 2 3 4 5 6 7 8 9 10 11 12 13 14 15 16 17 18 19 20 21 22 23 24 25
127
FTUS46 KLOX 252101 AAA
TAFSBA
TAF AMD
KSBA 252101Z 2521/2618 26017G22KT P6SM FEW060
     FM260200 29008KT P6SM SCT040 WS010/33030KT
     FM260800 34005KT P6SM SCT250=

USA.gov is the U.S. government's official web portal to all federal, state and local government web resources and services.